Time;durP1;ratioP1;P1;durP2;ratioP2;P2;SDS_P1;SDS_P2;PMS_P1;PMS_P2;Temp;Humidity;BMP_temperature;BMP_pressure;BME280_temperature;BME280_humidity;BME280_pressure;Samples;Min_cycle;Max_cycle;Signal;HPM_P1;HPM_P2
2022/01/05 00:00:19;;;;;;;14.40;8.20;;;;;;;5.59;84.74;96848.55;108242;1272;22621;-73
2022/01/05 00:02:46;;;;;;;12.20;7.30;;;;;;;5.55;84.53;96849.73;108305;1274;22562;-73
2022/01/05 00:05:13;;;;;;;9.70;6.60;;;;;;;5.49;84.46;96849.08;108221;1274;22597;-73
2022/01/05 00:07:40;;;;;;;12.40;7.00;;;;;;;5.43;84.20;96848.02;108204;1274;22586;-73
2022/01/05 00:10:07;;;;;;;11.50;6.60;;;;;;;5.39;84.21;96840.67;108209;1274;22537;-73
2022/01/05 00:12:34;;;;;;;10.50;6.60;;;;;;;5.42;84.16;96834.61;108239;1271;22557;-73
2022/01/05 00:15:01;;;;;;;11.40;6.50;;;;;;;5.42;84.48;96825.80;108251;1274;22761;-73
2022/01/05 00:17:28;;;;;;;12.60;6.10;;;;;;;5.42;84.56;96828.21;108207;1274;22625;-74
2022/01/05 00:19:55;;;;;;;11.00;6.10;;;;;;;5.39;84.52;96829.67;108206;1274;22551;-73
2022/01/05 00:22:23;;;;;;;12.60;6.60;;;;;;;5.34;84.45;96834.32;108203;1274;25450;-75
2022/01/05 00:24:50;;;;;;;11.60;6.30;;;;;;;5.30;84.26;96839.08;108387;1274;22559;-75
2022/01/05 00:27:17;;;;;;;12.80;7.40;;;;;;;5.28;84.13;96835.79;108200;1274;22620;-73
2022/01/05 00:29:44;;;;;;;15.80;7.70;;;;;;;5.31;84.16;96840.75;108202;1273;22550;-75
2022/01/05 00:32:11;;;;;;;14.40;8.30;;;;;;;5.34;84.34;96847.84;108196;1274;22594;-73
2022/01/05 00:34:38;;;;;;;16.00;7.80;;;;;;;5.32;84.46;96850.90;108215;1274;22548;-74
2022/01/05 00:37:05;;;;;;;13.50;6.50;;;;;;;5.28;84.41;96850.31;108237;1274;22625;-73
2022/01/05 00:39:33;;;;;;;13.10;6.70;;;;;;;5.23;84.37;96841.65;108292;1274;22537;-74
2022/01/05 00:42:00;;;;;;;11.80;7.00;;;;;;;5.18;84.16;96844.14;108234;1274;22664;-73
2022/01/05 00:44:27;;;;;;;12.40;7.30;;;;;;;5.15;83.93;96842.60;108208;1272;24493;-73
2022/01/05 00:46:54;;;;;;;12.30;6.00;;;;;;;5.18;84.03;96839.45;108213;1274;22547;-74
2022/01/05 00:49:21;;;;;;;10.90;5.90;;;;;;;5.18;84.17;96848.09;108208;1274;25354;-73
2022/01/05 00:51:48;;;;;;;14.10;6.70;;;;;;;5.16;84.21;96853.25;108180;1274;22568;-74
2022/01/05 00:54:15;;;;;;;12.10;6.70;;;;;;;5.13;84.25;96864.80;108237;1274;22556;-74
2022/01/05 00:56:42;;;;;;;11.30;6.50;;;;;;;5.10;84.15;96866.60;108203;1274;22561;-74
2022/01/05 00:59:09;;;;;;;9.70;6.00;;;;;;;5.06;84.03;96863.80;108428;1274;22558;-73
2022/01/05 01:01:36;;;;;;;10.70;5.60;;;;;;;5.03;83.93;96867.81;108450;1274;22550;-75
2022/01/05 01:04:04;;;;;;;12.20;5.80;;;;;;;5.04;83.86;96872.04;108446;1274;22614;-72
2022/01/05 01:06:31;;;;;;;8.40;5.20;;;;;;;5.04;83.97;96874.45;108465;1274;22593;-74
2022/01/05 01:08:58;;;;;;;10.60;5.60;;;;;;;5.03;84.11;96875.02;108439;1274;22646;-74
2022/01/05 01:11:25;;;;;;;12.70;7.40;;;;;;;5.01;84.22;96879.88;108428;1274;22556;-76
2022/01/05 01:13:52;;;;;;;18.00;8.40;;;;;;;4.99;84.14;96872.25;108433;1274;22674;-73
2022/01/05 01:16:19;;;;;;;16.30;9.30;;;;;;;4.98;84.22;96867.16;108288;1274;176567;-73
2022/01/05 01:18:46;;;;;;;10.90;6.30;;;;;;;4.98;83.91;96860.05;108457;1274;22739;-73
2022/01/05 01:21:13;;;;;;;15.00;7.30;;;;;;;5.01;83.76;96864.46;108433;1273;24410;-73
2022/01/05 01:23:48;;;;;;;11.50;5.50;;;;;;;5.02;83.89;96866.52;108445;1274;22556;-73
2022/01/05 01:26:15;;;;;;;13.60;6.90;;;;;;;5.01;83.97;96862.80;108440;1274;22579;-73
2022/01/05 01:28:42;;;;;;;20.00;8.30;;;;;;;4.98;83.96;96867.28;108437;1274;22709;-74
2022/01/05 01:31:09;;;;;;;13.40;6.90;;;;;;;4.96;84.03;96875.05;108430;1274;22551;-74
2022/01/05 01:33:36;;;;;;;14.00;7.30;;;;;;;4.95;83.80;96876.51;108435;1274;22636;-73
2022/01/05 01:36:03;;;;;;;11.10;6.50;;;;;;;4.93;83.67;96883.52;108437;1274;23213;-74
2022/01/05 01:38:30;;;;;;;20.00;9.00;;;;;;;4.95;83.52;96889.63;108451;1274;22627;-76
2022/01/05 01:40:57;;;;;;;16.00;7.10;;;;;;;4.95;83.75;96886.84;108433;1274;22540;-75
2022/01/05 01:43:24;;;;;;;19.60;8.90;;;;;;;4.94;83.98;96893.46;108452;1274;24253;-78
2022/01/05 01:45:51;;;;;;;19.80;8.60;;;;;;;4.90;84.09;96889.08;108457;1273;26029;-79
2022/01/05 01:48:18;;;;;;;21.70;9.30;;;;;;;4.88;84.08;96889.58;108445;1274;22736;-74
2022/01/05 01:50:45;;;;;;;19.10;8.50;;;;;;;4.86;83.93;96886.77;108464;1274;24440;-79
2022/01/05 01:53:12;;;;;;;18.60;8.90;;;;;;;4.86;83.66;96898.14;108467;1274;25361;-75
2022/01/05 01:55:40;;;;;;;19.50;9.00;;;;;;;4.88;83.56;96896.81;108431;1274;22640;-73
2022/01/05 01:58:07;;;;;;;20.70;9.80;;;;;;;4.87;83.93;96893.08;108436;1274;22557;-73
2022/01/05 02:00:35;;;;;;;18.40;8.80;;;;;;;4.85;83.96;96898.90;108448;1274;22562;-75
2022/01/05 02:03:03;;;;;;;16.00;8.60;;;;;;;4.82;84.38;96894.92;108460;1274;25331;-75
2022/01/05 02:05:30;;;;;;;21.50;10.60;;;;;;;4.80;83.99;96897.73;108442;1274;22564;-76
2022/01/05 02:07:57;;;;;;;23.60;11.10;;;;;;;4.76;84.01;96898.65;108447;1274;22572;-74
2022/01/05 02:10:23;;;;;;;21.80;10.50;;;;;;;4.76;83.85;96909.18;108477;1274;24106;-76
2022/01/05 02:12:50;;;;;;;19.90;9.70;;;;;;;4.76;83.79;96912.97;108432;1273;22568;-76
2022/01/05 02:15:17;;;;;;;17.90;9.50;;;;;;;4.76;84.14;96911.91;108466;1274;22542;-73
2022/01/05 02:18:10;;;;;;;22.90;10.80;;;;;;;4.75;84.21;96905.27;108458;1274;23957;-73
2022/01/05 02:20:37;;;;;;;19.10;9.40;;;;;;;4.72;84.29;96892.22;108441;1273;22518;-74
2022/01/05 02:23:05;;;;;;;18.70;9.20;;;;;;;4.68;84.35;96899.55;108462;1274;24714;-74
2022/01/05 02:25:32;;;;;;;19.50;10.40;;;;;;;4.65;84.06;96909.09;108441;1274;22727;-74
2022/01/05 02:27:59;;;;;;;18.50;9.70;;;;;;;4.67;84.21;96919.81;108458;1274;22702;-74
2022/01/05 02:30:28;;;;;;;16.70;8.30;;;;;;;4.68;84.57;96922.67;108444;1274;22556;-73
2022/01/05 02:32:55;;;;;;;17.20;9.20;;;;;;;4.65;84.65;96916.65;108460;1274;22551;-74
2022/01/05 02:35:24;;;;;;;19.80;10.10;;;;;;;4.63;84.68;96911.17;108439;1274;22550;-74
2022/01/05 02:37:54;;;;;;;14.90;8.90;;;;;;;4.60;84.75;96899.61;108462;1274;22554;-73
2022/01/05 02:40:23;;;;;;;17.50;8.90;;;;;;;4.59;84.42;96886.03;108444;1274;22575;-73
2022/01/05 02:42:54;;;;;;;16.50;9.10;;;;;;;4.63;84.36;96895.63;108446;1274;22555;-74
2022/01/05 02:45:21;;;;;;;16.20;8.50;;;;;;;4.62;84.33;96898.97;108466;1274;22567;-73
2022/01/05 02:47:48;;;;;;;20.30;9.40;;;;;;;4.60;84.74;96898.57;108432;1274;22546;-74
2022/01/05 02:50:15;;;;;;;16.40;9.50;;;;;;;4.58;84.93;96897.88;108463;1274;22620;-73
2022/01/05 02:52:43;;;;;;;17.30;9.60;;;;;;;4.56;84.65;96885.05;108445;1274;22605;-73
2022/01/05 02:55:12;;;;;;;14.10;9.30;;;;;;;4.55;84.45;96880.49;108472;1274;22623;-74
2022/01/05 02:57:39;;;;;;;15.80;10.00;;;;;;;4.59;84.40;96878.32;108454;1274;22605;-73
2022/01/05 03:00:09;;;;;;;14.80;7.90;;;;;;;4.58;84.56;96875.94;108432;1274;22760;-73
2022/01/05 03:02:36;;;;;;;18.50;8.30;;;;;;;4.56;84.55;96869.17;108438;1274;22635;-73
2022/01/05 03:05:04;;;;;;;16.20;8.60;;;;;;;4.51;84.60;96876.27;108439;1274;22555;-76
2022/01/05 03:07:33;;;;;;;17.40;9.80;;;;;;;4.45;84.48;96882.16;108462;1274;22629;-73
2022/01/05 03:10:00;;;;;;;22.30;12.20;;;;;;;4.39;84.27;96875.85;108456;1274;22623;-73
2022/01/05 03:12:26;;;;;;;19.60;11.40;;;;;;;4.35;84.22;96857.68;108428;1274;22660;-74
2022/01/05 03:14:53;;;;;;;20.20;10.30;;;;;;;4.37;84.12;96847.62;108453;1274;22626;-78
2022/01/05 03:17:20;;;;;;;19.00;9.90;;;;;;;4.35;84.25;96842.20;108460;1274;22567;-77
2022/01/05 03:19:47;;;;;;;18.90;9.90;;;;;;;4.34;84.18;96829.35;108457;1274;24306;-78
2022/01/05 03:22:14;;;;;;;25.90;13.50;;;;;;;4.31;84.32;96820.58;108472;1274;22879;-79
2022/01/05 03:24:41;;;;;;;25.00;12.90;;;;;;;4.26;84.77;96831.11;108440;1274;24405;-78
2022/01/05 03:27:08;;;;;;;25.90;14.10;;;;;;;4.23;84.50;96830.64;108463;1274;22589;-78
2022/01/05 03:29:35;;;;;;;25.10;13.10;;;;;;;4.19;84.14;96830.94;108454;1274;22552;-76
2022/01/05 03:32:02;;;;;;;24.70;13.50;;;;;;;4.17;83.92;96826.55;108435;1274;22594;-75
2022/01/05 03:34:31;;;;;;;26.40;14.10;;;;;;;4.13;83.94;96825.96;108442;1274;25251;-79
2022/01/05 03:36:59;;;;;;;27.00;15.00;;;;;;;4.08;84.16;96832.67;108445;1274;22653;-75
2022/01/05 03:39:27;;;;;;;29.70;15.90;;;;;;;4.02;84.14;96848.44;108453;1274;22553;-75
2022/01/05 03:41:54;;;;;;;32.00;15.60;;;;;;;3.96;84.30;96853.82;108422;1274;22559;-75
2022/01/05 03:44:22;;;;;;;29.70;15.20;;;;;;;3.89;84.10;96852.02;108432;1274;22546;-76
2022/01/05 03:46:51;;;;;;;24.00;14.50;;;;;;;3.83;83.50;96858.84;108467;1274;22559;-78
2022/01/05 03:49:17;;;;;;;24.80;14.50;;;;;;;3.79;83.52;96856.30;108427;1274;22589;-75
2022/01/05 03:51:45;;;;;;;23.40;13.20;;;;;;;3.75;83.60;96857.30;108439;1274;22577;-75
2022/01/05 03:54:12;;;;;;;29.40;15.40;;;;;;;3.70;83.99;96861.75;108446;1274;22689;-74
2022/01/05 03:56:39;;;;;;;27.60;15.20;;;;;;;3.63;83.67;96870.80;108417;1274;22586;-76
2022/01/05 03:59:06;;;;;;;28.00;14.00;;;;;;;3.57;83.87;96868.48;108434;1274;22596;-76
2022/01/05 04:01:33;;;;;;;23.20;13.00;;;;;;;3.53;83.81;96872.17;108442;1274;22558;-75
2022/01/05 04:04:00;;;;;;;25.30;14.70;;;;;;;3.50;83.84;96868.39;108437;1274;22577;-75
2022/01/05 04:06:27;;;;;;;24.80;13.50;;;;;;;3.51;83.72;96874.84;108454;1274;22555;-78
2022/01/05 04:08:54;;;;;;;22.60;12.60;;;;;;;3.50;83.71;96881.14;108450;1274;25382;-75
2022/01/05 04:11:20;;;;;;;21.50;12.60;;;;;;;3.47;83.96;96873.95;108448;1274;24362;-76
2022/01/05 04:13:47;;;;;;;22.10;13.00;;;;;;;3.43;83.94;96876.58;108431;1274;22560;-75
2022/01/05 04:16:14;;;;;;;25.00;12.50;;;;;;;3.38;83.88;96885.48;108466;1274;22553;-76
2022/01/05 04:18:41;;;;;;;21.40;12.10;;;;;;;3.32;83.87;96901.38;108453;1274;22568;-78
2022/01/05 04:21:08;;;;;;;20.70;12.80;;;;;;;3.24;83.88;96895.68;108439;1271;22560;-78
2022/01/05 04:23:35;;;;;;;21.50;13.00;;;;;;;3.24;83.70;96897.08;108436;1274;22559;-76
2022/01/05 04:26:02;;;;;;;22.50;12.70;;;;;;;3.23;83.87;96888.37;108427;1274;22627;-75
2022/01/05 04:28:29;;;;;;;23.20;12.30;;;;;;;3.20;84.36;96882.55;108468;1274;24380;-78
2022/01/05 04:30:56;;;;;;;21.40;11.50;;;;;;;3.17;84.34;96881.70;108453;1274;22561;-78
2022/01/05 04:33:23;;;;;;;22.30;12.20;;;;;;;3.14;84.22;96884.98;108444;1274;22563;-76
2022/01/05 04:35:50;;;;;;;17.30;11.00;;;;;;;3.12;84.32;96889.90;108434;1274;25390;-76
2022/01/05 04:38:17;;;;;;;22.40;14.10;;;;;;;3.12;84.05;96887.70;108445;1274;22642;-75
2022/01/05 04:40:44;;;;;;;21.00;13.90;;;;;;;3.15;84.06;96901.92;108450;1274;22626;-74
2022/01/05 04:43:12;;;;;;;22.20;13.20;;;;;;;3.17;84.18;96914.20;108436;1274;22558;-78
2022/01/05 04:45:39;;;;;;;21.20;13.20;;;;;;;3.18;84.36;96909.84;108444;1274;24260;-73
2022/01/05 04:48:06;;;;;;;21.30;14.30;;;;;;;3.17;84.55;96919.52;108446;1274;22622;-73
2022/01/05 04:50:33;;;;;;;25.40;15.60;;;;;;;3.14;84.73;96917.48;108448;1274;22611;-72
2022/01/05 04:53:00;;;;;;;31.10;17.40;;;;;;;3.09;84.29;96915.05;108437;1274;22545;-73
2022/01/05 04:55:27;;;;;;;31.20;18.80;;;;;;;3.05;84.54;96909.09;108466;1274;22562;-74
2022/01/05 04:57:54;;;;;;;35.10;19.20;;;;;;;3.08;84.25;96907.02;108441;1274;25441;-74
2022/01/05 05:00:21;;;;;;;31.40;19.20;;;;;;;3.10;84.37;96905.87;108485;1274;22563;-75
2022/01/05 05:02:48;;;;;;;29.30;18.60;;;;;;;3.13;84.78;96911.73;108537;1274;22599;-74
2022/01/05 05:05:15;;;;;;;30.30;17.00;;;;;;;3.12;84.82;96901.30;108536;1274;22563;-76
2022/01/05 05:07:42;;;;;;;28.90;18.20;;;;;;;3.12;84.91;96897.34;108534;1274;22669;-74
2022/01/05 05:10:09;;;;;;;30.80;18.90;;;;;;;3.12;84.96;96889.77;108555;1274;22571;-76
2022/01/05 05:12:36;;;;;;;33.60;20.70;;;;;;;3.14;84.57;96901.29;108509;1274;24338;-74
2022/01/05 05:15:03;;;;;;;37.40;21.10;;;;;;;3.15;84.64;96906.55;108507;1274;23042;-74
2022/01/05 05:17:30;;;;;;;46.50;22.40;;;;;;;3.16;84.69;96899.98;108454;1274;22616;-76
2022/01/05 05:19:57;;;;;;;43.60;23.40;;;;;;;3.17;84.70;96898.21;108467;1274;22607;-73
2022/01/05 05:22:24;;;;;;;47.30;24.60;;;;;;;3.16;85.00;96903.80;108515;1274;22620;-75
2022/01/05 05:24:51;;;;;;;43.50;23.80;;;;;;;3.14;84.94;96893.73;108494;1274;22553;-76
2022/01/05 05:27:19;;;;;;;42.00;23.40;;;;;;;3.13;84.73;96888.14;108468;1274;22734;-74
2022/01/05 05:29:46;;;;;;;41.50;23.00;;;;;;;3.14;84.75;96886.16;108461;1274;24299;-74
2022/01/05 05:32:13;;;;;;;53.30;29.70;;;;;;;3.19;84.55;96881.92;108459;1274;22585;-73
2022/01/05 05:34:40;;;;;;;80.40;45.40;;;;;;;3.22;84.80;96879.70;108466;1274;22540;-73
2022/01/05 05:37:07;;;;;;;61.20;35.70;;;;;;;3.23;85.05;96879.55;108502;1274;22612;-73
2022/01/05 05:39:34;;;;;;;55.90;31.20;;;;;;;3.22;85.10;96878.42;108473;1274;22555;-73
2022/01/05 05:42:00;;;;;;;52.90;30.00;;;;;;;3.23;85.31;96868.59;108429;1273;22564;-73
2022/01/05 05:44:27;;;;;;;48.60;30.30;;;;;;;3.25;85.02;96873.08;108436;1274;22603;-75
2022/01/05 05:46:54;;;;;;;61.80;39.10;;;;;;;3.28;85.14;96868.42;108451;1274;22554;-73
2022/01/05 05:49:21;;;;;;;60.20;39.70;;;;;;;3.33;84.77;96878.90;108438;1274;22649;-73
2022/01/05 05:51:48;;;;;;;55.70;36.40;;;;;;;3.36;84.78;96888.70;108456;1274;22633;-74
2022/01/05 05:54:15;;;;;;;55.30;35.10;;;;;;;3.37;85.10;96885.23;108443;1274;22666;-73
2022/01/05 05:56:42;;;;;;;74.50;41.50;;;;;;;3.37;85.13;96886.45;108491;1274;22544;-74
2022/01/05 05:59:09;;;;;;;83.40;44.80;;;;;;;3.36;84.95;96896.30;108433;1274;22547;-75
2022/01/05 06:01:36;;;;;;;58.70;35.20;;;;;;;3.33;84.90;96897.83;108470;1274;25391;-72
2022/01/05 06:04:03;;;;;;;60.60;36.10;;;;;;;3.31;84.96;96903.02;108474;1274;22697;-78
2022/01/05 06:06:29;;;;;;;66.00;36.50;;;;;;;3.34;84.76;96897.80;108419;1274;22554;-77
2022/01/05 06:08:56;;;;;;;72.70;38.60;;;;;;;3.37;84.82;96900.68;108222;1274;22529;-72
2022/01/05 06:11:23;;;;;;;65.00;39.00;;;;;;;3.38;84.84;96900.45;108228;1274;24256;-76
2022/01/05 06:13:52;;;;;;;70.70;39.70;;;;;;;3.38;85.09;96914.24;108235;1274;26587;-76
2022/01/05 06:16:19;;;;;;;69.60;37.70;;;;;;;3.37;85.22;96926.69;108234;1274;23113;-74
2022/01/05 06:18:46;;;;;;;69.40;38.40;;;;;;;3.36;85.34;96917.80;108226;1274;22714;-77
2022/01/05 06:21:13;;;;;;;72.90;41.20;;;;;;;3.38;85.19;96915.98;108243;1274;22544;-74
2022/01/05 06:23:40;;;;;;;79.60;42.10;;;;;;;3.44;85.06;96917.84;108288;1274;22556;-74
2022/01/05 06:26:07;;;;;;;81.00;42.10;;;;;;;3.48;85.13;96922.71;108223;1274;22597;-74
2022/01/05 06:28:34;;;;;;;70.10;40.00;;;;;;;3.51;85.27;96925.27;108204;1274;22540;-73
2022/01/05 06:31:01;;;;;;;81.50;40.30;;;;;;;3.52;85.48;96923.67;108205;1274;22535;-75
2022/01/05 06:33:27;;;;;;;78.40;39.30;;;;;;;3.54;85.56;96916.71;108265;1274;22555;-73
2022/01/05 06:35:54;;;;;;;90.20;46.50;;;;;;;3.54;85.39;96920.45;108261;1274;23444;-73
2022/01/05 06:38:21;;;;;;;109.80;50.80;;;;;;;3.56;85.50;96916.73;108234;1274;25242;-74
2022/01/05 06:40:48;;;;;;;105.30;50.80;;;;;;;3.60;85.16;96917.28;108232;1274;22769;-73
2022/01/05 06:43:15;;;;;;;107.60;51.90;;;;;;;3.65;85.37;96921.15;108196;1274;22589;-74
2022/01/05 06:45:42;;;;;;;132.40;55.00;;;;;;;3.67;85.60;96910.15;108234;1274;26185;-74
2022/01/05 06:48:09;;;;;;;213.00;75.50;;;;;;;3.70;85.60;96907.00;108250;1274;22568;-73
2022/01/05 06:50:36;;;;;;;214.50;75.60;;;;;;;3.73;85.78;96917.00;108226;1274;26567;-73
2022/01/05 06:53:03;;;;;;;218.50;73.30;;;;;;;3.70;85.69;96934.03;108238;1274;25376;-75
2022/01/05 06:55:30;;;;;;;141.10;51.40;;;;;;;3.66;85.01;96939.45;108237;1274;26731;-73
2022/01/05 06:57:57;;;;;;;71.20;32.20;;;;;;;3.64;85.16;96934.92;108232;1274;22589;-74
2022/01/05 07:00:26;;;;;;;86.80;37.70;;;;;;;3.61;85.21;96928.40;108240;1274;22631;-73
2022/01/05 07:02:53;;;;;;;111.40;46.00;;;;;;;3.62;85.55;96929.55;108228;1274;22556;-76
2022/01/05 07:05:19;;;;;;;129.60;53.10;;;;;;;3.61;85.76;96919.15;108222;1274;22701;-73
2022/01/05 07:07:46;;;;;;;147.40;59.80;;;;;;;3.59;85.79;96905.98;108202;1274;22591;-73
2022/01/05 07:10:14;;;;;;;166.00;65.60;;;;;;;3.59;85.36;96916.85;108209;1274;22556;-73
2022/01/05 07:12:41;;;;;;;157.40;63.00;;;;;;;3.59;85.54;96918.90;108240;1274;22539;-73
2022/01/05 07:15:09;;;;;;;153.90;63.80;;;;;;;3.64;85.42;96918.60;108232;1274;22539;-74
2022/01/05 07:17:36;;;;;;;140.40;60.00;;;;;;;3.68;85.46;96920.23;108689;1274;23471;-73
2022/01/05 07:20:05;;;;;;;127.10;53.00;;;;;;;3.69;86.07;96919.13;108228;1274;25255;-73
2022/01/05 07:22:32;;;;;;;148.30;61.60;;;;;;;3.67;85.81;96923.06;108531;1274;22630;-73
2022/01/05 07:24:59;;;;;;;183.80;76.70;;;;;;;3.68;85.72;96917.50;108238;1274;22556;-74
2022/01/05 07:27:26;;;;;;;161.80;73.00;;;;;;;3.68;85.71;96917.13;108234;1274;22535;-73
2022/01/05 07:29:53;;;;;;;182.30;78.00;;;;;;;3.70;85.59;96921.45;108239;1274;22585;-73
2022/01/05 07:32:20;;;;;;;181.20;78.90;;;;;;;3.77;85.60;96917.55;108205;1274;22543;-74
2022/01/05 07:34:47;;;;;;;192.70;90.90;;;;;;;3.81;85.32;96909.91;108241;1274;22549;-75
2022/01/05 07:37:15;;;;;;;186.90;86.70;;;;;;;3.82;85.50;96899.35;108222;1274;22555;-73
2022/01/05 07:39:42;;;;;;;175.30;81.00;;;;;;;3.82;85.62;96902.44;108234;1274;25380;-74
2022/01/05 07:42:09;;;;;;;165.90;76.60;;;;;;;3.83;85.80;96911.16;108240;1274;22535;-75
2022/01/05 07:44:36;;;;;;;157.20;75.20;;;;;;;3.85;85.45;96919.61;108228;1274;22557;-73
2022/01/05 07:47:04;;;;;;;143.30;67.20;;;;;;;3.88;85.71;96912.36;108300;1274;22574;-74
2022/01/05 07:49:31;;;;;;;140.90;67.50;;;;;;;3.96;85.53;96915.29;108261;1274;22669;-72
2022/01/05 07:51:58;;;;;;;146.10;67.00;;;;;;;4.01;85.46;96907.25;108238;1274;22545;-72
2022/01/05 07:54:25;;;;;;;142.40;66.40;;;;;;;4.02;85.79;96903.88;108236;1274;22570;-72
2022/01/05 07:56:51;;;;;;;159.30;71.30;;;;;;;4.01;85.71;96896.02;108226;1274;22624;-72
2022/01/05 07:59:18;;;;;;;140.20;63.50;;;;;;;4.01;85.64;96893.23;108741;1274;22552;-72
2022/01/05 08:01:45;;;;;;;165.80;71.60;;;;;;;4.01;85.55;96892.27;108248;1274;22623;-73
2022/01/05 08:04:14;;;;;;;154.10;70.50;;;;;;;4.00;85.44;96894.57;108258;1274;23342;-73
2022/01/05 08:06:41;;;;;;;137.30;60.80;;;;;;;4.02;85.25;96901.83;108209;1274;22557;-73
2022/01/05 08:09:08;;;;;;;102.90;47.10;;;;;;;4.05;85.87;96911.41;108245;1274;25474;-72
2022/01/05 08:11:35;;;;;;;109.80;50.60;;;;;;;4.04;86.19;96914.23;108251;1274;22666;-74
2022/01/05 08:14:03;;;;;;;117.50;52.10;;;;;;;4.01;86.02;96918.73;108258;1274;22559;-73
2022/01/05 08:16:30;;;;;;;108.20;52.30;;;;;;;3.99;85.82;96920.46;108244;1274;22618;-71
2022/01/05 08:18:57;;;;;;;92.50;44.80;;;;;;;3.98;85.42;96915.00;108221;1274;22584;-72
2022/01/05 08:21:23;;;;;;;84.60;41.80;;;;;;;4.03;85.83;96915.15;108249;1274;25325;-73
2022/01/05 08:23:50;;;;;;;71.00;34.10;;;;;;;4.08;85.99;96927.40;108264;1274;22691;-73
2022/01/05 08:26:17;;;;;;;56.20;30.90;;;;;;;4.09;86.01;96934.94;108223;1274;23844;-72
2022/01/05 08:28:44;;;;;;;62.90;32.40;;;;;;;4.08;86.23;96928.45;108216;1274;22558;-72
2022/01/05 08:31:11;;;;;;;69.20;35.20;;;;;;;4.08;86.26;96922.76;108228;1274;22590;-71
2022/01/05 08:33:38;;;;;;;65.90;34.40;;;;;;;4.10;85.97;96922.80;108236;1274;22528;-72
2022/01/05 08:36:05;;;;;;;70.60;35.10;;;;;;;4.16;86.05;96924.85;108296;1274;22553;-72
2022/01/05 08:38:33;;;;;;;57.00;33.40;;;;;;;4.19;86.30;96934.30;108279;1274;22538;-73
2022/01/05 08:41:00;;;;;;;66.40;35.30;;;;;;;4.20;86.44;96932.30;108223;1274;22546;-73
2022/01/05 08:43:27;;;;;;;51.30;30.20;;;;;;;4.19;86.67;96929.48;108238;1274;22551;-72
2022/01/05 08:45:54;;;;;;;42.80;25.80;;;;;;;4.21;86.41;96933.98;108223;1274;22546;-72
2022/01/05 08:48:21;;;;;;;42.00;25.00;;;;;;;4.26;86.20;96942.27;108239;1274;25263;-72
2022/01/05 08:50:47;;;;;;;42.40;26.40;;;;;;;4.35;86.31;96942.84;108230;1274;22698;-72
2022/01/05 08:53:14;;;;;;;47.00;25.30;;;;;;;4.42;86.53;96942.90;108246;1274;22700;-72
2022/01/05 08:55:44;;;;;;;39.10;24.30;;;;;;;4.49;86.67;96944.34;108235;1274;22704;-72
2022/01/05 08:58:12;;;;;;;45.90;28.30;;;;;;;4.50;86.70;96945.95;108262;1274;22552;-73
2022/01/05 09:00:39;;;;;;;44.40;23.40;;;;;;;4.53;86.63;96944.52;108269;1274;22601;-74
2022/01/05 09:03:07;;;;;;;52.20;27.40;;;;;;;4.54;86.35;96946.73;108233;1274;22595;-74
2022/01/05 09:05:34;;;;;;;47.40;26.10;;;;;;;4.62;86.43;96945.17;108245;1274;22712;-73
2022/01/05 09:08:02;;;;;;;46.50;27.80;;;;;;;4.67;86.26;96939.27;108250;1274;22552;-74
2022/01/05 09:10:29;;;;;;;44.00;26.60;;;;;;;4.72;86.71;96932.27;108243;1274;22564;-73
2022/01/05 09:12:59;;;;;;;40.80;23.90;;;;;;;4.77;86.99;96934.30;108750;1274;22548;-74
2022/01/05 09:15:27;;;;;;;43.10;25.60;;;;;;;4.77;87.01;96943.77;108220;1274;22650;-72
2022/01/05 09:17:54;;;;;;;43.80;24.00;;;;;;;4.78;86.83;96943.66;108828;1274;25516;-72
2022/01/05 09:20:21;;;;;;;42.80;24.00;;;;;;;4.79;86.56;96942.41;108199;1274;22601;-73
2022/01/05 09:22:48;;;;;;;42.70;24.90;;;;;;;4.82;86.40;96945.35;108253;1274;25373;-73
2022/01/05 09:25:18;;;;;;;50.00;28.90;;;;;;;4.90;86.51;96947.69;108249;1274;24489;-73
2022/01/05 09:27:46;;;;;;;54.50;29.70;;;;;;;4.99;86.52;96942.25;108287;1274;22560;-73
2022/01/05 09:30:14;;;;;;;52.30;29.50;;;;;;;5.09;86.60;96944.68;108281;1274;22640;-71
2022/01/05 09:32:41;;;;;;;52.40;29.50;;;;;;;5.15;86.76;96943.73;108329;1274;22557;-71
2022/01/05 09:35:12;;;;;;;50.90;28.40;;;;;;;5.17;86.49;96938.95;108238;1274;22624;-74
2022/01/05 09:37:51;;;;;;;51.00;27.50;;;;;;;5.23;86.38;96940.21;108226;1274;22788;-72
2022/01/05 09:43:06;;;;;;;42.30;24.30;;;;;;;5.44;86.54;96944.95;108208;1274;22711;-77
2022/01/05 09:45:35;;;;;;;47.80;27.40;;;;;;;5.45;86.33;96942.13;108205;1274;22714;-73
2022/01/05 09:48:08;;;;;;;44.00;25.20;;;;;;;5.47;86.30;96942.64;108222;1274;22612;-75
2022/01/05 09:50:38;;;;;;;;;;;;;;;5.48;86.07;96942.92;108264;1274;22575;-80
2022/01/05 09:53:07;;;;;;;51.30;26.90;;;;;;;5.43;85.83;96943.98;108260;1274;22616;-72
2022/01/05 09:55:34;;;;;;;37.30;21.30;;;;;;;5.45;85.64;96954.20;108364;1274;23483;-72
2022/01/05 09:58:01;;;;;;;46.90;24.80;;;;;;;5.47;85.17;96951.45;108277;1274;22587;-73
2022/01/05 10:00:28;;;;;;;33.50;21.00;;;;;;;5.52;85.52;96941.95;108367;1274;22586;-74
2022/01/05 10:02:55;;;;;;;42.20;22.90;;;;;;;5.50;85.37;96933.50;108414;1274;25531;-74
2022/01/05 10:05:23;;;;;;;40.10;22.30;;;;;;;5.48;85.44;96929.15;108432;1274;22559;-73
2022/01/05 10:07:50;;;;;;;50.60;25.60;;;;;;;5.46;85.46;96931.15;108435;1274;22549;-74
2022/01/05 10:10:17;;;;;;;42.90;26.10;;;;;;;5.47;85.11;96935.28;108443;1274;22546;-75
2022/01/05 10:12:44;;;;;;;46.20;25.10;;;;;;;5.49;85.00;96937.54;108412;1274;22557;-73
2022/01/05 10:15:14;;;;;;;49.60;27.00;;;;;;;5.54;84.78;96933.70;108420;1274;22598;-71
2022/01/05 10:17:41;;;;;;;48.50;24.90;;;;;;;5.59;84.88;96934.88;108424;1274;24261;-72
2022/01/05 10:20:11;;;;;;;41.60;25.40;;;;;;;5.64;85.06;96943.86;108424;1275;22585;-72
2022/01/05 10:22:45;;;;;;;42.00;24.90;;;;;;;5.59;84.94;96944.04;108409;1274;22551;-74
2022/01/05 10:25:20;;;;;;;42.20;24.00;;;;;;;5.58;84.60;96942.02;108433;1274;22569;-76
2022/01/05 10:28:01;;;;;;;47.60;27.10;;;;;;;5.55;84.11;96948.52;108337;1274;22578;-77
2022/01/05 10:30:43;;;;;;;44.00;26.00;;;;;;;5.56;84.20;96947.38;108211;1274;22594;-73
2022/01/05 10:33:10;;;;;;;48.20;26.70;;;;;;;5.63;84.30;96935.14;108243;1274;22750;-73
2022/01/05 10:35:38;;;;;;;35.30;20.00;;;;;;;5.64;84.45;96935.34;108231;1274;22539;-72
2022/01/05 10:38:09;;;;;;;36.30;20.00;;;;;;;5.68;84.90;96936.30;108238;1274;27648;-74
2022/01/05 10:40:38;;;;;;;33.40;20.70;;;;;;;5.63;84.59;96935.48;108248;1274;22560;-75
2022/01/05 10:43:11;;;;;;;37.30;22.40;;;;;;;5.60;84.29;96932.04;108271;1274;22769;-72
2022/01/05 10:45:47;;;;;;;36.70;21.30;;;;;;;5.63;84.08;96934.77;108215;1274;22616;-72
2022/01/05 10:48:16;;;;;;;41.40;22.80;;;;;;;5.62;83.89;96940.92;108191;1272;22579;-73
2022/01/05 10:50:45;;;;;;;49.00;25.10;;;;;;;5.67;84.01;96945.02;108209;1274;22632;-73
2022/01/05 10:53:20;;;;;;;38.40;22.20;;;;;;;5.70;84.08;96947.23;108237;1274;22590;-73
2022/01/05 10:55:47;;;;;;;32.30;19.90;;;;;;;5.75;84.64;96938.61;108256;1274;27834;-76
2022/01/05 10:58:19;;;;;;;32.80;20.00;;;;;;;5.77;84.55;96933.80;108306;1274;22563;-73
2022/01/05 11:00:54;;;;;;;32.90;20.20;;;;;;;5.78;83.91;96933.55;108214;1274;25416;-74
2022/01/05 11:03:39;;;;;;;58.60;29.20;;;;;;;5.72;83.67;96941.76;108277;1274;23167;-74
2022/01/05 11:06:11;;;;;;;46.80;26.10;;;;;;;5.64;83.53;96943.27;108224;1274;22554;-74
2022/01/05 11:09:04;;;;;;;62.20;34.60;;;;;;;5.65;83.59;96944.78;108224;1274;27612;-74
2022/01/05 11:11:38;;;;;;;33.40;21.40;;;;;;;5.63;83.79;96948.08;108204;1274;22552;-74
2022/01/05 11:14:14;;;;;;;26.10;17.20;;;;;;;5.58;83.89;96948.07;108203;1274;22605;-74
2022/01/05 11:16:43;;;;;;;25.60;16.20;;;;;;;5.57;83.64;96948.52;108237;1274;22630;-74
2022/01/05 11:19:31;;;;;;;23.80;14.90;;;;;;;5.50;83.33;96943.13;108249;1274;24235;-75
2022/01/05 11:22:00;;;;;;;22.90;13.50;;;;;;;5.47;83.05;96937.29;108239;1274;22570;-75
2022/01/05 11:24:30;;;;;;;19.00;11.60;;;;;;;5.45;82.92;96942.78;108225;1274;24347;-75